West Delray Beach, Florida
Current Conditions -  °F | °C
As of 1:50 PM on Monday 20 Oct 2014 (Local Time) from KBCT Reporting Station
Few Clouds Few Clouds  
Wind Chill: 86°   Ceiling: Unl
Heat Index: 87°   Visibility: 10mi
Dew Point: 64°   Wind: 7mph
Humidity: 48%   Direction: 130°SE
Pressure: 29.98"   Gusts: NA
Location:  26.4537°N, 80.2081°W
Report Text: KBCT 201750Z 13006KT 10SM FEW048 30/18 A2998
Loading
Personal Weather Stations






























Interactive Weather Map
Tropical Storm Tracking
New forecast layout! Learn more

10-Day Weather Forecast

Advertisements
Track Severe Weather on mobile